Vremea acum in Teius - Romania

Vrei sa afli care e starea vremii acum in Alba - Romania? Dorim sa iti furnizam starea vremii pentru Alba - Romania. Starea vremii Alba - Romania pentru astazi.

Vremea acum in Teius

Temperatura: 19 °C

Se simte ca: 19 °C
Innorat: 0 %
Precipitatii: %
Presiune atmosferica: 1021 hPa
Umiditate: 78%
Vizibilitate: 10 km
Vantul bate din WNW cu 6.1 km/h

Evolutia vremii in Teius pe ore

Ora: 21:00
Temperatura: °C
Sansa de precipitatii: %
Ora Descriere Temp Se simte Precipitatii Umiditate Vant
00:00Parțial noros23.5°26.2°0%65%NW 2.2 KM/H
01:00Parțial noros20.5°20.5°0%66%NW 2.2 KM/H
02:00Parțial noros17.4°17.4°0%68%NW 1.8 KM/H
03:00Parțial noros17.1°17.1°0%69%NW 1.8 KM/H
04:00Parțial noros16.8°16.8°0%71%NW 1.8 KM/H
05:00Parțial noros16.5°16.5°0%72%NW 1.8 KM/H
06:00Parțial noros18.9°18.9°0%67%WSW 2.2 KM/H
07:00Parțial noros21.4°21.4°0%61%SSE 2.5 KM/H
08:00Parțial noros23.8°25.2°0%56%E 2.9 KM/H
09:00Parțial noros25.8°26.7°0%50%E 4 KM/H
10:00Parțial noros27.9°28.2°0%44%E 5.4 KM/H
11:00Parțial noros29.9°29.7°0%38%E 6.5 KM/H
12:00Parțial noros30.9°30.6°0%35%E 6.8 KM/H
13:00Parțial noros32°31.5°0%32%E 6.8 KM/H
14:00Parțial noros33°32.4°0%30%E 7.2 KM/H
15:00Parțial noros32.9°32.4°0%30%ESE 6.5 KM/H
16:00Parțial noros32.9°32.5°0%31%ESE 6.1 KM/H
17:00Parțial noros32.8°32.5°0%32%ESE 5.4 KM/H
18:00Parțial noros32.1°33.3°0%37%S 4.3 KM/H
19:00Parțial noros31.5°34°0%43%W 3.2 KM/H
20:00Parțial noros30.8°34.8°0%49%NNW 2.2 KM/H
21:00Parțial noros29.8°33.1°0%51%SW 2.5 KM/H
22:00Parțial noros28.8°31.5°0%53%SE 2.5 KM/H
23:00Parțial noros27.8°29.8°0%55%NE 2.9 KM/H